createdAt,value
2023-02-14T00:01:28.467Z,33.25
2023-02-14T00:04:00.696Z,29.40
2023-02-14T00:06:29.888Z,31.30
2023-02-14T00:08:58.755Z,36.72
2023-02-14T00:11:26.530Z,29.00
2023-02-14T00:14:13.113Z,33.33
2023-02-14T00:16:40.717Z,30.42
2023-02-14T00:19:11.940Z,32.25
2023-02-14T00:21:40.338Z,32.42
2023-02-14T00:24:13.434Z,37.28
2023-02-14T00:26:41.991Z,32.28
2023-02-14T00:29:12.130Z,32.95
2023-02-14T00:31:41.404Z,29.17
2023-02-14T00:34:10.210Z,31.50
2023-02-14T00:36:38.755Z,32.50
2023-02-14T00:39:09.457Z,32.03
2023-02-14T00:41:38.753Z,32.30
2023-02-14T00:44:07.744Z,31.00
2023-02-14T00:46:37.153Z,31.35
2023-02-14T00:49:05.012Z,32.15
2023-02-14T00:51:33.157Z,34.75
2023-02-14T00:54:03.644Z,29.85
2023-02-14T00:56:32.960Z,30.55
2023-02-14T00:59:00.706Z,33.25
2023-02-14T01:01:29.170Z,31.80
2023-02-14T01:03:56.904Z,33.40
2023-02-14T01:06:25.301Z,33.95
2023-02-14T01:08:52.969Z,33.42
2023-02-14T01:11:22.670Z,31.25
2023-02-14T01:13:52.681Z,32.80
2023-02-14T01:16:23.473Z,33.35
2023-02-14T01:18:52.146Z,30.55
2023-02-14T01:21:29.098Z,32.55
2023-02-14T01:23:59.518Z,34.78
2023-02-14T01:26:28.923Z,31.90
2023-02-14T01:28:56.908Z,34.83
2023-02-14T01:31:30.938Z,34.90
2023-02-14T01:33:59.606Z,37.10
2023-02-14T01:36:33.180Z,35.83
2023-02-14T01:39:04.647Z,36.03
2023-02-14T01:41:34.692Z,37.60
2023-02-14T01:44:04.686Z,32.78
2023-02-14T01:46:35.415Z,34.85
2023-02-14T01:49:22.942Z,37.55
2023-02-14T01:51:57.151Z,34.45
2023-02-14T01:54:27.723Z,34.45
2023-02-14T01:57:01.397Z,37.92
2023-02-14T01:59:37.103Z,32.78
2023-02-14T02:02:05.548Z,31.52
2023-02-14T02:04:38.068Z,31.02
2023-02-14T02:07:08.969Z,35.20
2023-02-14T02:09:44.129Z,35.35
2023-02-14T02:12:13.257Z,34.80
2023-02-14T02:14:42.983Z,41.28
2023-02-14T02:17:49.313Z,43.45
2023-02-14T02:20:32.676Z,42.95
2023-02-14T02:23:46.358Z,44.72
2023-02-14T02:26:23.422Z,39.05
2023-02-14T02:29:18.609Z,34.72
2023-02-14T02:32:08.718Z,38.58
2023-02-14T02:35:16.222Z,33.55
2023-02-14T02:38:04.131Z,35.53
2023-02-14T02:40:46.704Z,37.40
2023-02-14T02:43:17.906Z,36.63
2023-02-14T02:46:15.149Z,34.25
2023-02-14T02:49:13.409Z,31.70
2023-02-14T02:52:26.999Z,33.83
2023-02-14T02:55:00.672Z,33.05
2023-02-14T03:02:58.370Z,35.08
2023-02-14T03:05:29.076Z,35.25
2023-02-14T03:07:56.852Z,33.08
2023-02-14T03:10:28.520Z,31.63
2023-02-14T03:13:24.382Z,31.70
2023-02-14T03:16:10.875Z,33.58
2023-02-14T03:19:03.405Z,33.00
2023-02-14T03:21:42.232Z,30.42
2023-02-14T03:24:54.571Z,34.00
2023-02-14T03:27:31.682Z,38.22
2023-02-14T03:30:18.622Z,35.90
2023-02-14T03:33:04.107Z,33.55
2023-02-14T03:35:46.808Z,34.30
2023-02-14T03:38:40.606Z,33.03
2023-02-14T03:41:16.008Z,33.92
2023-02-14T03:44:01.015Z,33.50
2023-02-14T03:46:37.913Z,34.70
2023-02-14T03:49:10.690Z,35.03
2023-02-14T03:51:39.782Z,36.53
2023-02-14T03:54:11.517Z,38.17
2023-02-14T03:56:49.608Z,37.08
2023-02-14T03:59:22.395Z,39.08
2023-02-14T04:02:44.643Z,37.80
2023-02-14T04:05:18.898Z,39.42
2023-02-14T04:07:50.210Z,38.90
2023-02-14T04:10:20.513Z,38.58
2023-02-14T04:12:48.807Z,39.17
2023-02-14T04:15:17.773Z,38.47
2023-02-14T04:18:04.989Z,38.28
2023-02-14T04:20:34.191Z,41.13
2023-02-14T04:23:03.434Z,38.45
2023-02-14T04:25:31.729Z,41.78
2023-02-14T04:27:59.784Z,42.72
2023-02-14T04:30:27.488Z,40.38
2023-02-14T04:32:55.454Z,41.55
2023-02-14T04:35:23.042Z,41.38
2023-02-14T04:37:51.052Z,41.00
2023-02-14T04:40:19.955Z,40.70
2023-02-14T04:42:48.059Z,40.97
2023-02-14T04:45:16.338Z,38.20
2023-02-14T04:47:44.010Z,42.47
2023-02-14T04:50:11.678Z,41.75
2023-02-14T04:52:40.557Z,40.88
2023-02-14T04:55:09.879Z,43.42
2023-02-14T04:57:37.527Z,44.33
2023-02-14T05:00:05.847Z,41.53
2023-02-14T05:02:33.685Z,41.78
2023-02-14T05:05:01.401Z,44.63
2023-02-14T05:07:29.920Z,48.45
2023-02-14T05:09:57.685Z,45.85
2023-02-14T05:12:25.879Z,46.65
2023-02-14T05:14:53.670Z,48.35
2023-02-14T05:17:21.301Z,44.65
2023-02-14T05:19:48.885Z,47.88
2023-02-14T05:22:18.407Z,49.08
2023-02-14T05:24:46.654Z,48.88
2023-02-14T05:27:14.594Z,47.88
2023-02-14T05:29:43.147Z,47.35
2023-02-14T05:32:10.667Z,46.88
2023-02-14T05:34:39.037Z,46.03
2023-02-14T05:37:07.082Z,44.72
2023-02-14T05:39:34.556Z,44.88
2023-02-14T05:42:03.274Z,46.22
2023-02-14T05:44:31.387Z,46.00
2023-02-14T05:46:59.384Z,45.80
2023-02-14T05:49:27.567Z,48.50
2023-02-14T05:51:55.519Z,45.80
2023-02-14T05:54:23.551Z,47.15
2023-02-14T05:56:51.228Z,48.40
2023-02-14T05:59:19.181Z,46.40
2023-02-14T06:01:46.771Z,49.78
2023-02-14T06:04:14.933Z,47.15
2023-02-14T06:06:43.353Z,46.53
2023-02-14T06:09:11.338Z,46.80
2023-02-14T06:11:38.798Z,50.47
2023-02-14T06:14:06.436Z,49.25
2023-02-14T06:16:33.956Z,50.13
2023-02-14T06:19:01.944Z,49.38
2023-02-14T06:21:29.706Z,49.53
2023-02-14T06:23:57.616Z,48.58
2023-02-14T06:26:27.953Z,49.35
2023-02-14T06:28:57.825Z,49.08
2023-02-14T06:31:26.234Z,49.72
2023-02-14T06:33:54.549Z,50.33
2023-02-14T06:36:22.527Z,49.83
2023-02-14T06:38:51.007Z,51.92
2023-02-14T06:41:18.786Z,50.30
2023-02-14T06:43:50.607Z,51.53
2023-02-14T06:46:19.138Z,50.28
2023-02-14T06:48:47.263Z,51.15
2023-02-14T06:51:14.860Z,52.95
2023-02-14T06:53:42.720Z,48.83
2023-02-14T06:56:10.242Z,52.15
2023-02-14T06:58:38.716Z,52.50
2023-02-14T07:01:06.874Z,50.28
2023-02-14T07:03:34.664Z,48.40
2023-02-14T07:06:03.201Z,49.20
2023-02-14T07:08:30.978Z,47.92
2023-02-14T07:10:59.131Z,49.30
2023-02-14T07:13:27.586Z,46.45
2023-02-14T07:15:55.658Z,47.72
2023-02-14T07:18:23.291Z,48.03
2023-02-14T07:20:51.759Z,46.88
2023-02-14T07:23:19.359Z,47.15
2023-02-14T07:25:47.305Z,49.20
2023-02-14T07:28:15.130Z,48.28
2023-02-14T07:30:43.114Z,46.53
2023-02-14T07:33:11.360Z,45.92
2023-02-14T07:35:39.062Z,41.17
2023-02-14T07:38:07.787Z,40.83
2023-02-14T07:40:35.832Z,39.28
2023-02-14T07:43:03.892Z,37.00
2023-02-14T07:45:31.897Z,33.65
2023-02-14T07:48:02.114Z,34.50
2023-02-14T07:50:30.474Z,35.50
2023-02-14T07:52:58.026Z,36.70
2023-02-14T07:55:26.041Z,33.33
2023-02-14T07:57:53.744Z,30.70
2023-02-14T08:00:22.192Z,31.65
2023-02-14T08:02:50.168Z,32.03
2023-02-14T08:05:18.593Z,30.55
2023-02-14T08:07:49.131Z,29.23
2023-02-14T08:10:17.276Z,31.95
2023-02-14T08:13:00.349Z,32.53
2023-02-14T08:15:54.071Z,31.58
2023-02-14T08:18:27.194Z,29.90
2023-02-14T08:20:55.177Z,30.38
2023-02-14T08:23:23.172Z,30.08
2023-02-14T08:25:52.543Z,33.03
2023-02-14T08:28:23.304Z,35.28
2023-02-14T08:30:52.312Z,36.08
2023-02-14T08:33:20.964Z,38.85
2023-02-14T08:35:49.090Z,37.88
2023-02-14T08:38:16.625Z,36.67
2023-02-14T08:40:44.723Z,38.67
2023-02-14T08:43:13.728Z,36.60
2023-02-14T08:45:42.330Z,35.13
2023-02-14T08:48:12.636Z,36.35
2023-02-14T08:50:40.858Z,36.97
2023-02-14T08:53:10.674Z,33.80
2023-02-14T08:55:38.541Z,33.28
2023-02-14T08:58:07.218Z,33.90
2023-02-14T09:00:35.775Z,34.17
2023-02-14T09:03:03.903Z,33.85
2023-02-14T09:05:32.848Z,35.97
2023-02-14T09:08:02.413Z,31.02
2023-02-14T09:10:30.095Z,31.90
2023-02-14T09:12:58.019Z,40.30
2023-02-14T09:15:25.924Z,37.78
2023-02-14T09:17:53.615Z,36.65
2023-02-14T09:20:21.822Z,34.65
2023-02-14T09:22:50.256Z,33.30
2023-02-14T09:25:17.981Z,34.30
2023-02-14T09:27:46.018Z,30.63
2023-02-14T09:30:14.146Z,24.10
2023-02-14T09:32:42.164Z,25.13
2023-02-14T09:35:09.868Z,24.73
2023-02-14T09:37:57.314Z,25.65
2023-02-14T09:40:25.793Z,24.45
2023-02-14T09:42:57.442Z,25.33
2023-02-14T09:45:27.644Z,24.98
2023-02-14T09:48:10.168Z,25.10
2023-02-14T09:50:45.761Z,25.38
2023-02-14T09:53:16.371Z,25.10
2023-02-14T09:56:08.880Z,24.65
2023-02-14T09:58:46.086Z,24.92
2023-02-14T10:01:29.742Z,25.27
2023-02-14T10:04:21.558Z,22.92
2023-02-14T10:07:01.226Z,23.10
2023-02-14T10:09:49.625Z,21.10
2023-02-14T10:12:35.456Z,21.98
2023-02-14T10:15:14.293Z,21.92
2023-02-14T10:17:47.374Z,22.35
2023-02-14T10:20:24.493Z,25.27
2023-02-14T10:23:03.324Z,24.23
2023-02-14T10:25:42.738Z,25.50
2023-02-14T10:28:16.502Z,25.17
2023-02-14T10:30:56.408Z,25.63
2023-02-14T10:33:31.154Z,25.48
2023-02-14T10:36:06.236Z,25.83
2023-02-14T10:39:02.286Z,23.73
2023-02-14T10:41:43.819Z,24.58
2023-02-14T10:44:39.258Z,26.50
2023-02-14T10:47:20.338Z,28.00
2023-02-14T10:50:08.712Z,26.13
2023-02-14T10:52:57.384Z,26.63
2023-02-14T10:55:35.027Z,26.00
2023-02-14T10:58:06.562Z,27.83
2023-02-14T11:00:38.624Z,27.85
2023-02-14T11:03:10.938Z,27.20
2023-02-14T11:05:46.174Z,26.38
2023-02-14T11:08:39.819Z,27.33
2023-02-14T11:11:18.351Z,24.90
2023-02-14T11:13:46.419Z,24.13
2023-02-14T11:16:36.151Z,24.95
2023-02-14T11:19:10.306Z,21.73
2023-02-14T11:21:44.017Z,23.30
2023-02-14T11:24:30.677Z,16.88
2023-02-14T11:27:02.769Z,18.52
2023-02-14T11:29:33.354Z,16.80
2023-02-14T11:32:17.103Z,19.40
2023-02-14T11:34:54.370Z,16.55
2023-02-14T11:37:25.987Z,18.52
2023-02-14T11:39:55.561Z,18.00
2023-02-14T11:42:45.510Z,16.95
2023-02-14T11:45:34.705Z,11.45
2023-02-14T11:48:37.217Z,11.70
2023-02-14T11:51:09.958Z,12.90
2023-02-14T11:53:43.625Z,9.55
2023-02-14T11:58:46.062Z,10.40
2023-02-14T12:01:32.502Z,9.15
2023-02-14T12:04:06.162Z,9.07
2023-02-14T12:06:36.854Z,10.10
2023-02-14T12:09:24.196Z,10.30
2023-02-14T12:11:55.639Z,11.77
2023-02-14T12:14:26.546Z,11.13
2023-02-14T12:17:05.691Z,11.50
2023-02-14T12:19:44.788Z,11.55
2023-02-14T12:22:19.261Z,12.25
2023-02-14T12:25:17.085Z,13.00
2023-02-14T12:27:55.287Z,12.40
2023-02-14T12:30:29.112Z,11.93
2023-02-14T12:32:58.071Z,12.90
2023-02-14T12:35:54.031Z,14.02
2023-02-14T12:39:03.331Z,13.98
2023-02-14T12:41:31.042Z,15.85
2023-02-14T12:44:14.620Z,16.05
2023-02-14T12:46:59.006Z,17.27
2023-02-14T12:49:49.605Z,17.88
2023-02-14T12:52:44.103Z,19.45
2023-02-14T12:55:33.763Z,20.05
2023-02-14T12:58:13.586Z,20.73
2023-02-14T13:01:29.222Z,20.63
2023-02-14T13:04:33.466Z,24.27
2023-02-14T13:07:24.810Z,22.65
2023-02-14T13:10:03.715Z,23.67
2023-02-14T13:12:42.254Z,22.67
2023-02-14T13:15:20.482Z,23.80
2023-02-14T13:17:54.945Z,25.23
2023-02-14T13:20:47.446Z,23.88
2023-02-14T13:23:30.584Z,28.48
2023-02-14T13:26:04.277Z,30.15
2023-02-14T13:31:01.986Z,29.88
2023-02-14T13:33:44.650Z,31.17
2023-02-14T13:36:13.787Z,25.40
2023-02-14T13:41:24.604Z,31.10
2023-02-14T13:43:54.085Z,30.60
2023-02-14T13:46:44.568Z,30.92
2023-02-14T13:49:34.660Z,31.52
2023-02-14T13:52:04.556Z,31.60
2023-02-14T13:54:48.461Z,33.40
2023-02-14T14:00:44.709Z,35.45
2023-02-14T14:03:27.722Z,39.13
2023-02-14T14:06:13.676Z,37.92
2023-02-14T14:08:54.473Z,34.60
2023-02-14T14:11:22.062Z,36.67
2023-02-14T14:13:55.394Z,37.58
2023-02-14T14:16:24.412Z,35.75
2023-02-14T14:19:30.535Z,35.13
2023-02-14T14:22:05.332Z,35.08
2023-02-14T14:24:36.702Z,36.35
2023-02-14T14:27:16.089Z,34.45
2023-02-14T14:29:56.648Z,35.63
2023-02-14T14:32:31.709Z,32.88
2023-02-14T14:35:24.828Z,34.22
2023-02-14T14:37:58.495Z,33.53
2023-02-14T14:40:32.733Z,33.80
2023-02-14T14:43:07.199Z,33.10
2023-02-14T14:45:35.352Z,35.45
2023-02-14T14:48:10.962Z,33.20
2023-02-14T14:50:40.061Z,33.17
2023-02-14T14:53:16.147Z,35.78
2023-02-14T14:55:46.754Z,34.45
2023-02-14T14:58:36.672Z,34.50
2023-02-14T15:01:07.228Z,33.50
2023-02-14T15:03:35.848Z,35.28
2023-02-14T15:06:17.438Z,34.95
2023-02-14T15:08:46.858Z,33.92
2023-02-14T15:11:37.523Z,34.80
2023-02-14T15:14:10.240Z,33.83
2023-02-14T15:16:51.783Z,35.00
2023-02-14T15:19:34.273Z,37.28
2023-02-14T15:22:05.977Z,34.47
2023-02-14T15:24:37.887Z,35.30
2023-02-14T15:27:05.953Z,36.83
2023-02-14T15:29:34.539Z,37.15
2023-02-14T15:32:03.750Z,39.72
2023-02-14T15:34:36.510Z,38.50
2023-02-14T15:37:06.774Z,38.65
2023-02-14T15:39:37.931Z,39.80
2023-02-14T15:42:06.315Z,43.22
2023-02-14T15:44:34.401Z,39.50
2023-02-14T15:47:05.936Z,39.80
2023-02-14T15:49:37.173Z,41.78
2023-02-14T15:52:05.995Z,43.83
2023-02-14T15:54:47.477Z,41.03
2023-02-14T15:57:28.105Z,40.95
2023-02-14T15:59:56.134Z,43.08
2023-02-14T16:02:38.053Z,44.20
2023-02-14T16:05:22.157Z,43.75
2023-02-14T16:10:37.286Z,43.05
2023-02-14T16:13:19.161Z,45.30
2023-02-14T16:16:05.440Z,46.90
2023-02-14T16:18:48.925Z,48.17
2023-02-14T16:21:23.940Z,46.15
2023-02-14T16:24:07.019Z,48.72
2023-02-14T16:26:43.932Z,49.08
2023-02-14T16:29:17.451Z,46.90
2023-02-14T16:32:12.107Z,46.53
2023-02-14T16:34:37.691Z,49.65
2023-02-14T16:37:09.130Z,47.35
2023-02-14T16:39:39.522Z,49.00
2023-02-14T16:42:17.215Z,49.90
2023-02-14T16:44:46.544Z,48.03
2023-02-14T16:47:16.249Z,50.47
2023-02-14T16:49:44.563Z,52.95
2023-02-14T16:52:18.498Z,49.55
2023-02-14T16:54:46.892Z,49.13
2023-02-14T16:57:27.635Z,53.50
2023-02-14T16:59:57.306Z,50.92
2023-02-14T17:02:29.087Z,51.83
2023-02-14T17:04:56.804Z,53.70
2023-02-14T17:07:24.668Z,52.95
2023-02-14T17:09:56.412Z,54.10
2023-02-14T17:12:34.138Z,50.88
2023-02-14T17:15:11.809Z,53.35
2023-02-14T17:17:40.224Z,55.75
2023-02-14T17:20:09.258Z,53.58
2023-02-14T17:22:37.518Z,56.65
2023-02-14T17:25:06.613Z,54.20
2023-02-14T17:27:35.258Z,59.85
2023-02-14T17:30:02.981Z,56.78
2023-02-14T17:32:31.377Z,59.25
2023-02-14T17:34:58.978Z,56.38
2023-02-14T17:37:27.108Z,56.45
2023-02-14T17:39:55.242Z,55.90
2023-02-14T17:42:23.205Z,55.90
2023-02-14T17:44:50.744Z,58.45
2023-02-14T17:47:19.886Z,54.45
2023-02-14T17:49:48.945Z,57.20
2023-02-14T17:52:17.431Z,56.80
2023-02-14T17:54:45.001Z,55.95
2023-02-14T17:57:12.778Z,56.58
2023-02-14T17:59:40.495Z,58.55
2023-02-14T18:02:09.616Z,62.60
2023-02-14T18:04:37.444Z,60.20
2023-02-14T18:07:06.397Z,58.63
2023-02-14T18:09:34.419Z,60.65
2023-02-14T18:12:04.086Z,60.78
2023-02-14T18:14:32.672Z,60.67
2023-02-14T18:17:00.703Z,60.55
2023-02-14T18:19:29.704Z,58.92
2023-02-14T18:21:57.420Z,58.17
2023-02-14T18:24:26.920Z,60.50
2023-02-14T18:26:55.676Z,64.07
2023-02-14T18:29:25.628Z,59.70
2023-02-14T18:31:53.307Z,60.40
2023-02-14T18:34:21.289Z,64.07
2023-02-14T18:36:49.365Z,61.97
2023-02-14T18:39:17.445Z,62.72
2023-02-14T18:41:46.372Z,64.55
2023-02-14T18:44:13.952Z,65.00
2023-02-14T18:46:42.349Z,65.00
2023-02-14T18:49:10.468Z,65.50
2023-02-14T18:51:39.487Z,64.70
2023-02-14T18:54:08.295Z,69.32
2023-02-14T18:56:43.229Z,69.10
2023-02-14T18:59:11.281Z,67.10
2023-02-14T19:01:42.923Z,68.13
2023-02-14T19:04:13.470Z,67.05
2023-02-14T19:06:42.276Z,80.38
2023-02-14T19:09:13.007Z,78.65
2023-02-14T19:11:41.083Z,78.53
2023-02-14T19:14:13.344Z,88.40
2023-02-14T19:16:50.293Z,83.22
2023-02-14T19:19:18.714Z,84.25
2023-02-14T19:21:47.006Z,82.10
2023-02-14T19:24:16.649Z,80.65
2023-02-14T19:26:45.130Z,74.57
2023-02-14T19:29:17.232Z,72.57
2023-02-14T19:31:48.398Z,70.63
2023-02-14T19:34:21.964Z,72.82
2023-02-14T19:36:51.450Z,70.43
2023-02-14T19:39:20.994Z,70.32
2023-02-14T19:41:49.161Z,74.32
2023-02-14T19:44:18.333Z,69.20
2023-02-14T19:46:47.806Z,70.53
2023-02-14T19:49:19.379Z,72.53
2023-02-14T19:51:49.324Z,66.95
2023-02-14T19:54:18.368Z,66.60
2023-02-14T19:56:46.959Z,58.83
2023-02-14T19:59:20.020Z,61.70
2023-02-14T20:01:50.925Z,58.17
2023-02-14T20:04:25.382Z,56.03
2023-02-14T20:06:54.306Z,59.42
2023-02-14T20:09:23.769Z,58.33
2023-02-14T20:11:54.645Z,58.08
2023-02-14T20:14:29.224Z,57.08
2023-02-14T20:16:59.513Z,57.55
2023-02-14T20:19:32.567Z,56.80
2023-02-14T20:22:09.589Z,59.55
2023-02-14T20:24:38.394Z,56.33
2023-02-14T20:27:06.599Z,59.47
2023-02-14T20:29:35.167Z,59.92
2023-02-14T20:32:04.965Z,56.72
2023-02-14T20:34:32.907Z,60.67
2023-02-14T20:37:00.530Z,58.15
2023-02-14T20:39:30.782Z,59.30
2023-02-14T20:41:59.911Z,57.15
2023-02-14T20:44:28.769Z,58.15
2023-02-14T20:46:57.166Z,55.55
2023-02-14T20:49:26.763Z,56.90
2023-02-14T20:51:56.190Z,57.70
2023-02-14T20:54:27.128Z,54.65
2023-02-14T20:56:55.154Z,52.45
2023-02-14T20:59:27.066Z,56.63
2023-02-14T21:01:56.374Z,55.17
2023-02-14T21:04:24.816Z,52.80
2023-02-14T21:06:52.923Z,51.85
2023-02-14T21:09:21.286Z,49.25
2023-02-14T21:11:50.288Z,48.53
2023-02-14T21:14:17.940Z,50.30
2023-02-14T21:16:46.445Z,48.50
2023-02-14T21:19:13.955Z,47.97
2023-02-14T21:21:41.760Z,49.25
2023-02-14T21:24:11.658Z,51.75
2023-02-14T21:26:40.289Z,49.30
2023-02-14T21:29:08.803Z,48.83
2023-02-14T21:31:38.223Z,51.13
2023-02-14T21:34:06.473Z,47.97
2023-02-14T21:36:37.120Z,46.50
2023-02-14T21:39:06.466Z,48.45
2023-02-14T21:41:36.173Z,53.15
2023-02-14T21:44:05.034Z,50.90
2023-02-14T21:46:36.864Z,51.10
2023-02-14T21:49:25.382Z,48.97
2023-02-14T21:51:53.877Z,50.65
2023-02-14T21:54:21.558Z,51.17
2023-02-14T21:56:49.953Z,54.83
2023-02-14T21:59:17.722Z,53.17
2023-02-14T22:01:45.273Z,54.05
2023-02-14T22:04:13.227Z,59.13
2023-02-14T22:06:43.077Z,57.85
2023-02-14T22:09:14.554Z,54.03
2023-02-14T22:11:42.245Z,55.75
2023-02-14T22:14:09.921Z,56.65
2023-02-14T22:16:38.612Z,58.70
2023-02-14T22:19:09.178Z,58.22
2023-02-14T22:21:36.708Z,55.80
2023-02-14T22:24:05.453Z,56.83
2023-02-14T22:26:38.782Z,64.03
2023-02-14T22:29:08.440Z,56.60
2023-02-14T22:31:39.405Z,53.47
2023-02-14T22:34:10.050Z,57.22
2023-02-14T22:36:37.883Z,56.42
2023-02-14T22:39:06.749Z,62.60
2023-02-14T22:41:37.806Z,54.90
2023-02-14T22:44:07.193Z,54.03
2023-02-14T22:46:39.390Z,56.80
2023-02-14T22:49:07.984Z,57.33
2023-02-14T22:51:41.734Z,52.45
2023-02-14T22:56:43.435Z,51.88
2023-02-14T22:59:19.451Z,58.38
2023-02-14T23:01:48.934Z,58.47
2023-02-14T23:04:19.415Z,58.35
2023-02-14T23:06:48.193Z,60.08
2023-02-14T23:09:16.549Z,69.82
2023-02-14T23:11:46.020Z,60.22
2023-02-14T23:14:34.801Z,60.88
2023-02-14T23:17:23.046Z,61.13
2023-02-14T23:20:09.271Z,57.83
2023-02-14T23:22:41.432Z,62.92
2023-02-14T23:25:11.451Z,61.53
2023-02-14T23:27:43.811Z,61.40
2023-02-14T23:30:15.407Z,65.97
2023-02-14T23:32:43.635Z,59.78
2023-02-14T23:35:11.604Z,60.22
2023-02-14T23:37:39.517Z,59.60
2023-02-14T23:40:08.485Z,63.58
2023-02-14T23:42:36.041Z,59.40
2023-02-14T23:45:23.383Z,59.95
2023-02-14T23:47:51.048Z,59.55
2023-02-14T23:50:18.878Z,61.33
2023-02-14T23:52:46.987Z,59.58
2023-02-14T23:55:15.535Z,58.40
2023-02-14T23:57:43.134Z,62.85
